Terminal Aerodrome Forecast
Issued by NWS

Home | Current Version | Previous Version | Graphics & Text | Print | Product List | Glossary On
Versions: 1 2 3 4 5 6 7 8 9 10 11 12 13 14 15 16 17 18 19 20 21
000
FTUS43 KBIS 201127
TAFDIK
TAF
KDIK 201127Z 2012/2112 29007KT P6SM SKC
     FM201500 31006KT P6SM FEW025 SCT180
     FM202000 32005KT P6SM SCT010 OVC025
     FM210100 31005KT 2SM BR SCT005 OVC015=

USA.gov is the U.S. government's official web portal to all federal, state and local government web resources and services.